Decoded Metar for EPLB ( in ) (IATA:) | Meteo·Mobile Aviation Weather
aviador You're here:

EPLB Decoded Metar

in
Report Time2019-05-25 20:30:00
UTC Time2019-05-25 20:56:58
Flight Rules vfr VFR
Wind300° at 04 kt
Visibility9999 m
Phenomena:N/A
Clouds:N/A
Expected CloudBase > 1,200 ft AGL from Temp-Dew spread
CeilingNone
Temp14°C
Dew Point11°C (82% RH)
AAT12.9°C
QNH1012 hPa
Raw Report
EPLB 252030Z 30004KT CAVOK 14/11 Q1012=

Extra information for EPLB:More info

Social comments